sensor_id;sensor_type;location;lat;lon;timestamp;temperature;humidity
25716;DHT22;13573;50.936;4.328;2023-05-07T00:02:12;17.30;99.90
25716;DHT22;13573;50.936;4.328;2023-05-07T00:04:39;17.20;99.90
25716;DHT22;13573;50.936;4.328;2023-05-07T00:07:05;17.30;99.90
25716;DHT22;13573;50.936;4.328;2023-05-07T00:09:32;17.40;99.90
25716;DHT22;13573;50.936;4.328;2023-05-07T00:11:58;17.00;99.90
25716;DHT22;13573;50.936;4.328;2023-05-07T00:14:25;17.40;99.90
25716;DHT22;13573;50.936;4.328;2023-05-07T00:16:52;17.30;99.90
25716;DHT22;13573;50.936;4.328;2023-05-07T00:19:18;17.20;99.90
25716;DHT22;13573;50.936;4.328;2023-05-07T00:21:45;17.20;99.90
25716;DHT22;13573;50.936;4.328;2023-05-07T00:24:12;17.10;99.90
25716;DHT22;13573;50.936;4.328;2023-05-07T00:26:39;17.20;99.90
25716;DHT22;13573;50.936;4.328;2023-05-07T00:29:05;17.10;99.90
25716;DHT22;13573;50.936;4.328;2023-05-07T00:31:32;17.30;99.90
25716;DHT22;13573;50.936;4.328;2023-05-07T00:33:59;17.30;99.90
25716;DHT22;13573;50.936;4.328;2023-05-07T00:36:25;17.30;99.90
25716;DHT22;13573;50.936;4.328;2023-05-07T00:38:54;17.40;99.90
25716;DHT22;13573;50.936;4.328;2023-05-07T00:41:21;17.40;99.90
25716;DHT22;13573;50.936;4.328;2023-05-07T00:43:48;17.40;99.90
25716;DHT22;13573;50.936;4.328;2023-05-07T00:46:17;17.40;99.90
25716;DHT22;13573;50.936;4.328;2023-05-07T00:48:45;17.50;99.90
25716;DHT22;13573;50.936;4.328;2023-05-07T00:51:12;17.40;99.90
25716;DHT22;13573;50.936;4.328;2023-05-07T00:53:39;17.40;99.90
25716;DHT22;13573;50.936;4.328;2023-05-07T00:56:06;17.60;99.90
25716;DHT22;13573;50.936;4.328;2023-05-07T00:58:33;17.30;99.90
25716;DHT22;13573;50.936;4.328;2023-05-07T01:01:02;15.60;99.90
25716;DHT22;13573;50.936;4.328;2023-05-07T01:03:29;17.10;99.90
25716;DHT22;13573;50.936;4.328;2023-05-07T01:05:57;17.30;99.90
25716;DHT22;13573;50.936;4.328;2023-05-07T01:08:25;17.30;99.90
25716;DHT22;13573;50.936;4.328;2023-05-07T01:10:55;17.20;99.90
25716;DHT22;13573;50.936;4.328;2023-05-07T01:13:22;17.10;99.90
25716;DHT22;13573;50.936;4.328;2023-05-07T01:15:50;17.10;99.90
25716;DHT22;13573;50.936;4.328;2023-05-07T01:18:17;17.20;99.90
25716;DHT22;13573;50.936;4.328;2023-05-07T01:20:43;17.10;99.90
25716;DHT22;13573;50.936;4.328;2023-05-07T01:25:38;16.90;99.90
25716;DHT22;13573;50.936;4.328;2023-05-07T01:28:04;17.00;99.90
25716;DHT22;13573;50.936;4.328;2023-05-07T01:30:33;16.90;99.90
25716;DHT22;13573;50.936;4.328;2023-05-07T01:33:04;17.20;99.90
25716;DHT22;13573;50.936;4.328;2023-05-07T01:35:36;17.20;99.90
25716;DHT22;13573;50.936;4.328;2023-05-07T01:38:03;17.10;99.90
25716;DHT22;13573;50.936;4.328;2023-05-07T01:40:32;17.10;99.90
25716;DHT22;13573;50.936;4.328;2023-05-07T01:43:02;16.80;99.90
25716;DHT22;13573;50.936;4.328;2023-05-07T01:45:30;16.90;99.90
25716;DHT22;13573;50.936;4.328;2023-05-07T01:47:58;16.80;99.90
25716;DHT22;13573;50.936;4.328;2023-05-07T01:50:26;16.80;99.90
25716;DHT22;13573;50.936;4.328;2023-05-07T01:52:53;16.70;99.90
25716;DHT22;13573;50.936;4.328;2023-05-07T01:55:20;16.60;99.90
25716;DHT22;13573;50.936;4.328;2023-05-07T01:57:47;16.50;99.90
25716;DHT22;13573;50.936;4.328;2023-05-07T02:00:13;16.50;99.90
25716;DHT22;13573;50.936;4.328;2023-05-07T02:02:40;16.60;99.90
25716;DHT22;13573;50.936;4.328;2023-05-07T02:05:07;16.50;99.90
25716;DHT22;13573;50.936;4.328;2023-05-07T02:07:34;16.40;99.90
25716;DHT22;13573;50.936;4.328;2023-05-07T02:10:01;16.30;99.90
25716;DHT22;13573;50.936;4.328;2023-05-07T02:12:28;16.40;99.90
25716;DHT22;13573;50.936;4.328;2023-05-07T02:14:55;16.10;99.90
25716;DHT22;13573;50.936;4.328;2023-05-07T02:17:22;16.20;99.90
25716;DHT22;13573;50.936;4.328;2023-05-07T02:19:48;16.20;99.90
25716;DHT22;13573;50.936;4.328;2023-05-07T02:22:15;16.20;99.90
25716;DHT22;13573;50.936;4.328;2023-05-07T02:24:42;16.20;99.90
25716;DHT22;13573;50.936;4.328;2023-05-07T02:27:10;16.40;99.90
25716;DHT22;13573;50.936;4.328;2023-05-07T02:29:36;16.40;99.90
25716;DHT22;13573;50.936;4.328;2023-05-07T02:32:03;16.40;99.90
25716;DHT22;13573;50.936;4.328;2023-05-07T02:34:30;16.20;99.90
25716;DHT22;13573;50.936;4.328;2023-05-07T02:36:56;16.10;99.90
25716;DHT22;13573;50.936;4.328;2023-05-07T02:39:23;16.10;99.90
25716;DHT22;13573;50.936;4.328;2023-05-07T02:41:50;16.00;99.90
25716;DHT22;13573;50.936;4.328;2023-05-07T02:44:16;16.00;99.90
25716;DHT22;13573;50.936;4.328;2023-05-07T02:46:43;16.10;99.90
25716;DHT22;13573;50.936;4.328;2023-05-07T02:49:09;16.10;99.90
25716;DHT22;13573;50.936;4.328;2023-05-07T02:51:36;16.00;99.90
25716;DHT22;13573;50.936;4.328;2023-05-07T02:54:03;15.80;99.90
25716;DHT22;13573;50.936;4.328;2023-05-07T02:56:29;15.80;99.90
25716;DHT22;13573;50.936;4.328;2023-05-07T02:58:56;16.00;99.90
25716;DHT22;13573;50.936;4.328;2023-05-07T03:01:22;16.00;99.90
25716;DHT22;13573;50.936;4.328;2023-05-07T03:03:49;16.00;99.90
25716;DHT22;13573;50.936;4.328;2023-05-07T03:06:16;16.30;99.90
25716;DHT22;13573;50.936;4.328;2023-05-07T03:08:42;16.40;99.90
25716;DHT22;13573;50.936;4.328;2023-05-07T03:11:09;16.30;99.90
25716;DHT22;13573;50.936;4.328;2023-05-07T03:13:36;16.20;99.90
25716;DHT22;13573;50.936;4.328;2023-05-07T03:16:02;16.40;99.90
25716;DHT22;13573;50.936;4.328;2023-05-07T03:18:29;16.20;99.90
25716;DHT22;13573;50.936;4.328;2023-05-07T03:20:56;16.10;99.90
25716;DHT22;13573;50.936;4.328;2023-05-07T03:23:22;16.30;99.90
25716;DHT22;13573;50.936;4.328;2023-05-07T03:25:49;16.40;99.90
25716;DHT22;13573;50.936;4.328;2023-05-07T03:28:15;16.50;99.90
25716;DHT22;13573;50.936;4.328;2023-05-07T03:30:42;16.20;99.90
25716;DHT22;13573;50.936;4.328;2023-05-07T03:33:09;16.40;99.90
25716;DHT22;13573;50.936;4.328;2023-05-07T03:35:35;16.20;99.90
25716;DHT22;13573;50.936;4.328;2023-05-07T03:38:02;16.20;99.90
25716;DHT22;13573;50.936;4.328;2023-05-07T03:40:29;16.10;99.90
25716;DHT22;13573;50.936;4.328;2023-05-07T03:45:22;16.40;99.90
25716;DHT22;13573;50.936;4.328;2023-05-07T03:47:49;16.70;99.90
25716;DHT22;13573;50.936;4.328;2023-05-07T03:50:15;16.60;99.90
25716;DHT22;13573;50.936;4.328;2023-05-07T03:52:42;16.70;99.90
25716;DHT22;13573;50.936;4.328;2023-05-07T03:55:09;16.40;99.90
25716;DHT22;13573;50.936;4.328;2023-05-07T03:57:36;16.40;99.90
25716;DHT22;13573;50.936;4.328;2023-05-07T04:00:03;16.40;99.90
25716;DHT22;13573;50.936;4.328;2023-05-07T04:02:30;16.40;99.90
25716;DHT22;13573;50.936;4.328;2023-05-07T04:04:57;16.30;99.90
25716;DHT22;13573;50.936;4.328;2023-05-07T04:07:23;16.10;99.90
25716;DHT22;13573;50.936;4.328;2023-05-07T04:09:50;16.20;99.90
25716;DHT22;13573;50.936;4.328;2023-05-07T04:12:16;16.30;99.90
25716;DHT22;13573;50.936;4.328;2023-05-07T04:14:43;16.30;99.90
25716;DHT22;13573;50.936;4.328;2023-05-07T04:17:10;16.30;99.90
25716;DHT22;13573;50.936;4.328;2023-05-07T04:19:37;16.20;99.90
25716;DHT22;13573;50.936;4.328;2023-05-07T04:22:04;16.40;99.90
25716;DHT22;13573;50.936;4.328;2023-05-07T04:24:32;16.50;99.90
25716;DHT22;13573;50.936;4.328;2023-05-07T04:26:59;16.50;99.90
25716;DHT22;13573;50.936;4.328;2023-05-07T04:29:25;16.60;99.90
25716;DHT22;13573;50.936;4.328;2023-05-07T04:31:52;16.80;99.90
25716;DHT22;13573;50.936;4.328;2023-05-07T04:34:18;16.70;99.90
25716;DHT22;13573;50.936;4.328;2023-05-07T04:36:47;16.50;99.90
25716;DHT22;13573;50.936;4.328;2023-05-07T04:39:13;16.60;99.90
25716;DHT22;13573;50.936;4.328;2023-05-07T04:41:41;16.90;99.90
25716;DHT22;13573;50.936;4.328;2023-05-07T04:44:07;16.60;99.90
25716;DHT22;13573;50.936;4.328;2023-05-07T04:46:35;16.80;99.90
25716;DHT22;13573;50.936;4.328;2023-05-07T04:49:01;16.70;99.90
25716;DHT22;13573;50.936;4.328;2023-05-07T04:51:29;16.70;99.90
25716;DHT22;13573;50.936;4.328;2023-05-07T04:53:57;16.70;99.90
25716;DHT22;13573;50.936;4.328;2023-05-07T04:56:27;16.60;99.90
25716;DHT22;13573;50.936;4.328;2023-05-07T04:58:53;16.60;99.90
25716;DHT22;13573;50.936;4.328;2023-05-07T05:01:19;16.80;99.90
25716;DHT22;13573;50.936;4.328;2023-05-07T05:03:46;16.90;99.90
25716;DHT22;13573;50.936;4.328;2023-05-07T05:06:13;16.90;99.90
25716;DHT22;13573;50.936;4.328;2023-05-07T05:08:39;16.80;99.90
25716;DHT22;13573;50.936;4.328;2023-05-07T05:11:06;16.90;99.90
25716;DHT22;13573;50.936;4.328;2023-05-07T05:13:33;16.40;99.90
25716;DHT22;13573;50.936;4.328;2023-05-07T05:15:59;17.00;99.90
25716;DHT22;13573;50.936;4.328;2023-05-07T05:18:26;17.10;99.90
25716;DHT22;13573;50.936;4.328;2023-05-07T05:20:53;17.10;99.90
25716;DHT22;13573;50.936;4.328;2023-05-07T05:23:19;17.30;99.90
25716;DHT22;13573;50.936;4.328;2023-05-07T05:25:46;17.40;99.90
25716;DHT22;13573;50.936;4.328;2023-05-07T05:28:13;17.40;99.90
25716;DHT22;13573;50.936;4.328;2023-05-07T05:30:39;17.50;99.90
25716;DHT22;13573;50.936;4.328;2023-05-07T05:33:06;17.50;99.90
25716;DHT22;13573;50.936;4.328;2023-05-07T05:35:32;17.40;99.90
25716;DHT22;13573;50.936;4.328;2023-05-07T05:38:01;17.60;99.90
25716;DHT22;13573;50.936;4.328;2023-05-07T05:40:27;17.80;99.90
25716;DHT22;13573;50.936;4.328;2023-05-07T05:42:54;17.70;99.90
25716;DHT22;13573;50.936;4.328;2023-05-07T05:45:21;17.50;99.90
25716;DHT22;13573;50.936;4.328;2023-05-07T05:47:47;17.30;99.90
25716;DHT22;13573;50.936;4.328;2023-05-07T05:50:14;17.30;99.90
25716;DHT22;13573;50.936;4.328;2023-05-07T05:52:41;17.20;99.90
25716;DHT22;13573;50.936;4.328;2023-05-07T05:55:09;17.60;99.90
25716;DHT22;13573;50.936;4.328;2023-05-07T05:57:35;17.50;99.90
25716;DHT22;13573;50.936;4.328;2023-05-07T06:00:02;17.60;99.90
25716;DHT22;13573;50.936;4.328;2023-05-07T06:02:30;17.60;99.90
25716;DHT22;13573;50.936;4.328;2023-05-07T06:04:56;18.00;99.90
25716;DHT22;13573;50.936;4.328;2023-05-07T06:07:23;17.70;99.90
25716;DHT22;13573;50.936;4.328;2023-05-07T06:09:49;18.10;99.90
25716;DHT22;13573;50.936;4.328;2023-05-07T06:12:16;17.90;99.90
25716;DHT22;13573;50.936;4.328;2023-05-07T06:14:43;17.70;99.90
25716;DHT22;13573;50.936;4.328;2023-05-07T06:17:10;17.10;99.90
25716;DHT22;13573;50.936;4.328;2023-05-07T06:19:37;17.50;99.90
25716;DHT22;13573;50.936;4.328;2023-05-07T06:22:03;17.40;99.90
25716;DHT22;13573;50.936;4.328;2023-05-07T06:24:30;16.90;99.90
25716;DHT22;13573;50.936;4.328;2023-05-07T06:26:57;17.00;99.90
25716;DHT22;13573;50.936;4.328;2023-05-07T06:29:24;17.20;99.90
25716;DHT22;13573;50.936;4.328;2023-05-07T06:31:53;17.30;99.90
25716;DHT22;13573;50.936;4.328;2023-05-07T06:34:20;17.20;99.90
25716;DHT22;13573;50.936;4.328;2023-05-07T06:36:46;17.30;99.90
25716;DHT22;13573;50.936;4.328;2023-05-07T06:39:13;17.20;99.90
25716;DHT22;13573;50.936;4.328;2023-05-07T06:41:39;17.00;99.90
25716;DHT22;13573;50.936;4.328;2023-05-07T06:44:06;17.00;99.90
25716;DHT22;13573;50.936;4.328;2023-05-07T06:46:33;16.90;99.90
25716;DHT22;13573;50.936;4.328;2023-05-07T06:48:59;17.10;99.90
25716;DHT22;13573;50.936;4.328;2023-05-07T06:51:26;17.10;99.90
25716;DHT22;13573;50.936;4.328;2023-05-07T06:53:52;17.10;99.90
25716;DHT22;13573;50.936;4.328;2023-05-07T06:56:19;17.30;99.90
25716;DHT22;13573;50.936;4.328;2023-05-07T06:58:46;17.00;99.90
25716;DHT22;13573;50.936;4.328;2023-05-07T07:01:13;17.40;99.90
25716;DHT22;13573;50.936;4.328;2023-05-07T07:03:40;17.00;99.90
25716;DHT22;13573;50.936;4.328;2023-05-07T07:06:06;17.40;99.90
25716;DHT22;13573;50.936;4.328;2023-05-07T07:08:33;17.40;99.90
25716;DHT22;13573;50.936;4.328;2023-05-07T07:11:00;17.70;99.90
25716;DHT22;13573;50.936;4.328;2023-05-07T07:13:27;17.60;99.90
25716;DHT22;13573;50.936;4.328;2023-05-07T07:15:53;17.70;99.90
25716;DHT22;13573;50.936;4.328;2023-05-07T07:18:20;17.90;99.90
25716;DHT22;13573;50.936;4.328;2023-05-07T07:20:47;17.90;99.90
25716;DHT22;13573;50.936;4.328;2023-05-07T07:23:14;17.80;99.90
25716;DHT22;13573;50.936;4.328;2023-05-07T07:25:40;18.10;99.90
25716;DHT22;13573;50.936;4.328;2023-05-07T07:28:07;18.40;99.90
25716;DHT22;13573;50.936;4.328;2023-05-07T07:30:33;18.30;99.90
25716;DHT22;13573;50.936;4.328;2023-05-07T07:33:00;18.30;99.90
25716;DHT22;13573;50.936;4.328;2023-05-07T07:35:29;18.30;99.90
25716;DHT22;13573;50.936;4.328;2023-05-07T07:37:56;18.30;99.90
25716;DHT22;13573;50.936;4.328;2023-05-07T07:40:23;18.30;99.90
25716;DHT22;13573;50.936;4.328;2023-05-07T07:42:51;18.70;99.90
25716;DHT22;13573;50.936;4.328;2023-05-07T07:45:18;18.50;99.90
25716;DHT22;13573;50.936;4.328;2023-05-07T07:47:44;18.70;99.90
25716;DHT22;13573;50.936;4.328;2023-05-07T07:50:11;18.60;99.90
25716;DHT22;13573;50.936;4.328;2023-05-07T07:52:38;18.60;99.90
25716;DHT22;13573;50.936;4.328;2023-05-07T07:55:06;18.60;99.90
25716;DHT22;13573;50.936;4.328;2023-05-07T07:57:33;18.70;99.90
25716;DHT22;13573;50.936;4.328;2023-05-07T07:59:59;18.80;99.90
25716;DHT22;13573;50.936;4.328;2023-05-07T08:02:26;18.70;99.90
25716;DHT22;13573;50.936;4.328;2023-05-07T08:04:53;18.50;99.90
25716;DHT22;13573;50.936;4.328;2023-05-07T08:07:20;18.80;99.90
25716;DHT22;13573;50.936;4.328;2023-05-07T08:09:49;19.10;99.90
25716;DHT22;13573;50.936;4.328;2023-05-07T08:12:15;18.10;99.90
25716;DHT22;13573;50.936;4.328;2023-05-07T08:14:42;18.50;99.90
25716;DHT22;13573;50.936;4.328;2023-05-07T08:17:09;18.60;99.90
25716;DHT22;13573;50.936;4.328;2023-05-07T08:19:36;18.80;99.90
25716;DHT22;13573;50.936;4.328;2023-05-07T08:22:03;18.70;99.90
25716;DHT22;13573;50.936;4.328;2023-05-07T08:24:31;18.80;99.90
25716;DHT22;13573;50.936;4.328;2023-05-07T08:26:58;18.80;99.90
25716;DHT22;13573;50.936;4.328;2023-05-07T08:29:24;19.00;99.90
25716;DHT22;13573;50.936;4.328;2023-05-07T08:31:51;18.80;99.90
25716;DHT22;13573;50.936;4.328;2023-05-07T08:34:17;18.60;99.90
25716;DHT22;13573;50.936;4.328;2023-05-07T08:36:44;18.30;99.90
25716;DHT22;13573;50.936;4.328;2023-05-07T08:39:13;18.20;99.90
25716;DHT22;13573;50.936;4.328;2023-05-07T08:41:40;18.00;99.90
25716;DHT22;13573;50.936;4.328;2023-05-07T08:44:11;18.30;99.90
25716;DHT22;13573;50.936;4.328;2023-05-07T08:46:37;18.00;99.90
25716;DHT22;13573;50.936;4.328;2023-05-07T08:49:05;18.10;99.90
25716;DHT22;13573;50.936;4.328;2023-05-07T08:51:33;18.00;99.90
25716;DHT22;13573;50.936;4.328;2023-05-07T08:54:01;17.90;99.90
25716;DHT22;13573;50.936;4.328;2023-05-07T08:56:28;17.70;99.90
25716;DHT22;13573;50.936;4.328;2023-05-07T08:58:55;17.20;99.90
25716;DHT22;13573;50.936;4.328;2023-05-07T09:01:24;17.60;99.90
25716;DHT22;13573;50.936;4.328;2023-05-07T09:03:52;17.30;99.90
25716;DHT22;13573;50.936;4.328;2023-05-07T09:06:19;16.10;99.90
25716;DHT22;13573;50.936;4.328;2023-05-07T09:08:50;17.50;99.90
25716;DHT22;13573;50.936;4.328;2023-05-07T09:11:20;17.80;99.90
25716;DHT22;13573;50.936;4.328;2023-05-07T09:13:47;17.50;99.90
25716;DHT22;13573;50.936;4.328;2023-05-07T09:16:14;17.80;99.90
25716;DHT22;13573;50.936;4.328;2023-05-07T09:18:42;17.70;99.90
25716;DHT22;13573;50.936;4.328;2023-05-07T09:21:10;17.80;99.90
25716;DHT22;13573;50.936;4.328;2023-05-07T09:23:38;17.80;99.90
25716;DHT22;13573;50.936;4.328;2023-05-07T09:26:06;17.80;99.90
25716;DHT22;13573;50.936;4.328;2023-05-07T09:28:35;18.00;99.90
25716;DHT22;13573;50.936;4.328;2023-05-07T09:31:04;18.20;99.90
25716;DHT22;13573;50.936;4.328;2023-05-07T09:33:31;17.80;99.90
25716;DHT22;13573;50.936;4.328;2023-05-07T09:38:25;17.80;99.90
25716;DHT22;13573;50.936;4.328;2023-05-07T09:41:03;17.80;99.90
25716;DHT22;13573;50.936;4.328;2023-05-07T09:43:34;18.00;99.90
25716;DHT22;13573;50.936;4.328;2023-05-07T09:46:21;17.80;99.90
25716;DHT22;13573;50.936;4.328;2023-05-07T09:48:52;18.00;99.90
25716;DHT22;13573;50.936;4.328;2023-05-07T09:51:28;18.00;99.90
25716;DHT22;13573;50.936;4.328;2023-05-07T09:53:54;18.30;99.90
25716;DHT22;13573;50.936;4.328;2023-05-07T09:56:22;18.10;99.90
25716;DHT22;13573;50.936;4.328;2023-05-07T09:58:53;18.10;99.90
25716;DHT22;13573;50.936;4.328;2023-05-07T10:01:21;16.70;99.90
25716;DHT22;13573;50.936;4.328;2023-05-07T10:03:48;18.20;99.90
25716;DHT22;13573;50.936;4.328;2023-05-07T10:06:16;17.90;99.90
25716;DHT22;13573;50.936;4.328;2023-05-07T10:08:45;18.00;99.90
25716;DHT22;13573;50.936;4.328;2023-05-07T10:11:13;17.90;99.90
25716;DHT22;13573;50.936;4.328;2023-05-07T10:13:41;18.00;99.90
25716;DHT22;13573;50.936;4.328;2023-05-07T10:16:09;17.90;99.90
25716;DHT22;13573;50.936;4.328;2023-05-07T10:18:37;18.00;99.90
25716;DHT22;13573;50.936;4.328;2023-05-07T10:21:13;17.70;99.90
25716;DHT22;13573;50.936;4.328;2023-05-07T10:23:40;18.00;99.90
25716;DHT22;13573;50.936;4.328;2023-05-07T10:26:08;18.10;99.90
25716;DHT22;13573;50.936;4.328;2023-05-07T10:28:38;18.10;99.90
25716;DHT22;13573;50.936;4.328;2023-05-07T10:31:18;18.20;99.90
25716;DHT22;13573;50.936;4.328;2023-05-07T10:33:45;17.90;99.90
25716;DHT22;13573;50.936;4.328;2023-05-07T10:36:13;18.50;99.90
25716;DHT22;13573;50.936;4.328;2023-05-07T10:38:39;18.20;99.90
25716;DHT22;13573;50.936;4.328;2023-05-07T10:41:06;18.50;99.90
25716;DHT22;13573;50.936;4.328;2023-05-07T10:43:40;18.40;99.90
25716;DHT22;13573;50.936;4.328;2023-05-07T10:46:14;18.30;99.90
25716;DHT22;13573;50.936;4.328;2023-05-07T10:49:19;18.10;99.90
25716;DHT22;13573;50.936;4.328;2023-05-07T10:51:33;18.30;99.90
25716;DHT22;13573;50.936;4.328;2023-05-07T10:56:51;18.20;99.90
25716;DHT22;13573;50.936;4.328;2023-05-07T10:59:36;18.10;99.90
25716;DHT22;13573;50.936;4.328;2023-05-07T11:02:05;17.50;99.90
25716;DHT22;13573;50.936;4.328;2023-05-07T11:04:33;17.80;99.90
25716;DHT22;13573;50.936;4.328;2023-05-07T11:07:21;17.70;99.90
25716;DHT22;13573;50.936;4.328;2023-05-07T11:09:59;18.10;99.90
25716;DHT22;13573;50.936;4.328;2023-05-07T11:12:51;17.90;99.90
25716;DHT22;13573;50.936;4.328;2023-05-07T11:17:58;17.90;99.90
25716;DHT22;13573;50.936;4.328;2023-05-07T11:23:03;18.30;99.90
25716;DHT22;13573;50.936;4.328;2023-05-07T11:25:30;18.50;99.90
25716;DHT22;13573;50.936;4.328;2023-05-07T11:28:04;18.30;99.90
25716;DHT22;13573;50.936;4.328;2023-05-07T11:30:28;18.50;99.90
25716;DHT22;13573;50.936;4.328;2023-05-07T11:32:55;18.10;99.90
25716;DHT22;13573;50.936;4.328;2023-05-07T11:35:23;18.50;99.90
25716;DHT22;13573;50.936;4.328;2023-05-07T11:37:57;18.90;99.90
25716;DHT22;13573;50.936;4.328;2023-05-07T11:40:21;19.20;99.90
25716;DHT22;13573;50.936;4.328;2023-05-07T11:42:47;19.30;99.90
25716;DHT22;13573;50.936;4.328;2023-05-07T11:45:22;18.90;99.90
25716;DHT22;13573;50.936;4.328;2023-05-07T11:47:45;18.90;99.90
25716;DHT22;13573;50.936;4.328;2023-05-07T11:50:11;18.90;99.90
25716;DHT22;13573;50.936;4.328;2023-05-07T11:52:38;19.00;99.90
25716;DHT22;13573;50.936;4.328;2023-05-07T11:55:06;19.00;99.90
25716;DHT22;13573;50.936;4.328;2023-05-07T11:57:33;19.20;99.90
25716;DHT22;13573;50.936;4.328;2023-05-07T12:00:01;19.60;99.90
25716;DHT22;13573;50.936;4.328;2023-05-07T12:02:30;19.50;99.90
25716;DHT22;13573;50.936;4.328;2023-05-07T12:04:57;19.40;99.90
25716;DHT22;13573;50.936;4.328;2023-05-07T12:07:24;19.20;99.90
25716;DHT22;13573;50.936;4.328;2023-05-07T12:09:52;19.40;99.90
25716;DHT22;13573;50.936;4.328;2023-05-07T12:12:18;19.30;99.90
25716;DHT22;13573;50.936;4.328;2023-05-07T12:14:45;19.50;99.90
25716;DHT22;13573;50.936;4.328;2023-05-07T12:17:14;19.50;99.90
25716;DHT22;13573;50.936;4.328;2023-05-07T12:19:42;19.60;99.90
25716;DHT22;13573;50.936;4.328;2023-05-07T12:22:09;19.60;99.90
25716;DHT22;13573;50.936;4.328;2023-05-07T12:24:45;19.60;99.90
25716;DHT22;13573;50.936;4.328;2023-05-07T12:27:14;19.60;99.90
25716;DHT22;13573;50.936;4.328;2023-05-07T12:29:47;19.40;99.90
25716;DHT22;13573;50.936;4.328;2023-05-07T12:32:16;19.50;99.90
25716;DHT22;13573;50.936;4.328;2023-05-07T12:34:44;20.30;99.90
25716;DHT22;13573;50.936;4.328;2023-05-07T12:37:25;19.80;99.90
25716;DHT22;13573;50.936;4.328;2023-05-07T12:42:36;20.30;99.90
25716;DHT22;13573;50.936;4.328;2023-05-07T12:45:11;20.30;99.90
25716;DHT22;13573;50.936;4.328;2023-05-07T12:47:39;20.10;99.90
25716;DHT22;13573;50.936;4.328;2023-05-07T12:50:06;20.40;99.90
25716;DHT22;13573;50.936;4.328;2023-05-07T12:55:45;20.90;99.90
25716;DHT22;13573;50.936;4.328;2023-05-07T12:58:18;19.30;99.90
25716;DHT22;13573;50.936;4.328;2023-05-07T13:00:47;20.60;99.90
25716;DHT22;13573;50.936;4.328;2023-05-07T13:03:34;21.00;99.90
25716;DHT22;13573;50.936;4.328;2023-05-07T13:06:04;20.90;99.90
25716;DHT22;13573;50.936;4.328;2023-05-07T13:08:34;21.00;99.90
25716;DHT22;13573;50.936;4.328;2023-05-07T13:11:03;20.50;99.90
25716;DHT22;13573;50.936;4.328;2023-05-07T13:13:31;20.70;99.90
25716;DHT22;13573;50.936;4.328;2023-05-07T13:15:57;21.00;99.90
25716;DHT22;13573;50.936;4.328;2023-05-07T13:18:25;21.10;99.90
25716;DHT22;13573;50.936;4.328;2023-05-07T13:20:53;20.60;99.90
25716;DHT22;13573;50.936;4.328;2023-05-07T13:23:20;20.60;99.90
25716;DHT22;13573;50.936;4.328;2023-05-07T13:25:47;20.70;99.90
25716;DHT22;13573;50.936;4.328;2023-05-07T13:28:14;21.20;99.90
25716;DHT22;13573;50.936;4.328;2023-05-07T13:30:40;21.40;99.90
25716;DHT22;13573;50.936;4.328;2023-05-07T13:33:07;21.30;99.90
25716;DHT22;13573;50.936;4.328;2023-05-07T13:35:34;21.60;99.90
25716;DHT22;13573;50.936;4.328;2023-05-07T13:38:01;21.50;99.90
25716;DHT22;13573;50.936;4.328;2023-05-07T13:40:28;21.50;99.90
25716;DHT22;13573;50.936;4.328;2023-05-07T13:42:57;22.00;99.90
25716;DHT22;13573;50.936;4.328;2023-05-07T13:45:25;22.00;99.90
25716;DHT22;13573;50.936;4.328;2023-05-07T13:47:52;22.00;99.90
25716;DHT22;13573;50.936;4.328;2023-05-07T13:50:19;21.90;99.90
25716;DHT22;13573;50.936;4.328;2023-05-07T13:52:46;21.90;99.90
25716;DHT22;13573;50.936;4.328;2023-05-07T13:55:14;22.00;99.90
25716;DHT22;13573;50.936;4.328;2023-05-07T13:57:41;22.20;99.90
25716;DHT22;13573;50.936;4.328;2023-05-07T14:00:08;21.70;99.90
25716;DHT22;13573;50.936;4.328;2023-05-07T14:02:35;21.60;99.90
25716;DHT22;13573;50.936;4.328;2023-05-07T14:05:02;21.50;99.90
25716;DHT22;13573;50.936;4.328;2023-05-07T14:07:28;21.50;99.90
25716;DHT22;13573;50.936;4.328;2023-05-07T14:09:56;21.10;99.90
25716;DHT22;13573;50.936;4.328;2023-05-07T14:12:22;21.00;99.90
25716;DHT22;13573;50.936;4.328;2023-05-07T14:14:49;21.50;99.90
25716;DHT22;13573;50.936;4.328;2023-05-07T14:17:17;21.80;99.90
25716;DHT22;13573;50.936;4.328;2023-05-07T14:19:44;22.10;99.90
25716;DHT22;13573;50.936;4.328;2023-05-07T14:22:13;22.30;99.90
25716;DHT22;13573;50.936;4.328;2023-05-07T14:24:39;22.10;99.90
25716;DHT22;13573;50.936;4.328;2023-05-07T14:27:06;22.50;99.90
25716;DHT22;13573;50.936;4.328;2023-05-07T14:29:33;22.40;99.90
25716;DHT22;13573;50.936;4.328;2023-05-07T14:32:01;22.00;99.90
25716;DHT22;13573;50.936;4.328;2023-05-07T14:34:29;22.00;99.90
25716;DHT22;13573;50.936;4.328;2023-05-07T14:36:55;21.90;99.90
25716;DHT22;13573;50.936;4.328;2023-05-07T14:39:22;21.80;99.90
25716;DHT22;13573;50.936;4.328;2023-05-07T14:41:48;21.70;99.90
25716;DHT22;13573;50.936;4.328;2023-05-07T14:44:15;21.70;99.90
25716;DHT22;13573;50.936;4.328;2023-05-07T14:46:42;21.70;99.90
25716;DHT22;13573;50.936;4.328;2023-05-07T14:49:08;21.60;99.90
25716;DHT22;13573;50.936;4.328;2023-05-07T14:51:37;21.80;99.90
25716;DHT22;13573;50.936;4.328;2023-05-07T14:54:04;21.80;99.90
25716;DHT22;13573;50.936;4.328;2023-05-07T14:56:30;22.00;99.90
25716;DHT22;13573;50.936;4.328;2023-05-07T14:58:57;21.80;99.90
25716;DHT22;13573;50.936;4.328;2023-05-07T15:01:25;22.10;99.90
25716;DHT22;13573;50.936;4.328;2023-05-07T15:03:52;22.00;99.90
25716;DHT22;13573;50.936;4.328;2023-05-07T15:06:18;21.80;99.90
25716;DHT22;13573;50.936;4.328;2023-05-07T15:08:45;21.40;99.90
25716;DHT22;13573;50.936;4.328;2023-05-07T15:11:11;21.10;99.90
25716;DHT22;13573;50.936;4.328;2023-05-07T15:13:38;20.90;99.90
25716;DHT22;13573;50.936;4.328;2023-05-07T15:16:05;21.00;99.90
25716;DHT22;13573;50.936;4.328;2023-05-07T15:18:31;20.90;99.90
25716;DHT22;13573;50.936;4.328;2023-05-07T15:20:58;21.00;99.90
25716;DHT22;13573;50.936;4.328;2023-05-07T15:23:25;21.10;99.90
25716;DHT22;13573;50.936;4.328;2023-05-07T15:25:52;21.50;99.90
25716;DHT22;13573;50.936;4.328;2023-05-07T15:28:20;21.30;99.90
25716;DHT22;13573;50.936;4.328;2023-05-07T15:30:47;21.50;99.90
25716;DHT22;13573;50.936;4.328;2023-05-07T15:33:13;21.60;99.90
25716;DHT22;13573;50.936;4.328;2023-05-07T15:35:40;21.30;99.90
25716;DHT22;13573;50.936;4.328;2023-05-07T15:38:07;21.40;99.90
25716;DHT22;13573;50.936;4.328;2023-05-07T15:40:34;21.40;99.90
25716;DHT22;13573;50.936;4.328;2023-05-07T15:43:03;21.50;99.90
25716;DHT22;13573;50.936;4.328;2023-05-07T15:45:30;21.60;99.90
25716;DHT22;13573;50.936;4.328;2023-05-07T15:47:57;21.40;99.90
25716;DHT22;13573;50.936;4.328;2023-05-07T15:50:24;21.50;99.90
25716;DHT22;13573;50.936;4.328;2023-05-07T15:52:50;21.50;99.90
25716;DHT22;13573;50.936;4.328;2023-05-07T15:55:17;21.50;99.90